Time;durP1;ratioP1;P1;durP2;ratioP2;P2;SDS_P1;SDS_P2;PMS_P1;PMS_P2;Temp;Humidity;BMP_temperature;BMP_pressure;BME280_temperature;BME280_humidity;BME280_pressure;Samples;Min_cycle;Max_cycle;Signal;HPM_P1;HPM_P2
2023/06/01 00:01:16;;;;;;;3.53;3.22;;;;;;;;;;4948958;28;20059;-74
2023/06/01 00:03:44;;;;;;;3.33;3.10;;;;;;;;;;4948189;28;20418;-74
2023/06/01 00:06:12;;;;;;;4.03;3.63;;;;;;;;;;4943436;28;20488;-74
2023/06/01 00:08:39;;;;;;;3.33;3.03;;;;;;;;;;4944977;28;20051;-74
2023/06/01 00:11:07;;;;;;;3.67;3.38;;;;;;;;;;4950858;28;20575;-74
2023/06/01 00:13:35;;;;;;;3.28;3.03;;;;;;;;;;4940193;28;20058;-74
2023/06/01 00:16:02;;;;;;;3.58;3.28;;;;;;;;;;4951171;28;20051;-74
2023/06/01 00:18:30;;;;;;;3.63;3.33;;;;;;;;;;4958798;28;20162;-74
2023/06/01 00:20:57;;;;;;;3.03;2.83;;;;;;;;;;4953741;28;20055;-74
2023/06/01 00:23:25;;;;;;;3.55;3.25;;;;;;;;;;4955251;28;20059;-74
2023/06/01 00:25:53;;;;;;;3.92;3.08;;;;;;;;;;4957561;28;20516;-74
2023/06/01 00:28:20;;;;;;;3.80;3.50;;;;;;;;;;4945649;28;20498;-74
2023/06/01 00:30:48;;;;;;;3.35;3.10;;;;;;;;;;4949000;28;20056;-74
2023/06/01 00:33:15;;;;;;;3.70;3.40;;;;;;;;;;4948177;28;20050;-75
2023/06/01 00:35:43;;;;;;;3.60;3.30;;;;;;;;;;4943220;28;20043;-74
2023/06/01 00:38:11;;;;;;;3.53;3.22;;;;;;;;;;4942754;28;20043;-74
2023/06/01 00:40:40;;;;;;;4.55;3.40;;;;;;;;;;4944028;28;20126;-75
2023/06/01 00:43:08;;;;;;;3.88;3.20;;;;;;;;;;4951242;28;20047;-75
2023/06/01 00:45:35;;;;;;;3.47;3.17;;;;;;;;;;4951995;28;20141;-75
2023/06/01 00:48:03;;;;;;;3.75;3.10;;;;;;;;;;4945149;28;20039;-74
2023/06/01 00:50:31;;;;;;;3.25;3.05;;;;;;;;;;4946847;28;20130;-75
2023/06/01 00:52:59;;;;;;;5.38;3.42;;;;;;;;;;4947322;28;20047;-75
2023/06/01 00:55:27;;;;;;;3.83;3.53;;;;;;;;;;4950875;28;20057;-74
2023/06/01 00:57:55;;;;;;;7.03;3.38;;;;;;;;;;4979223;28;20051;-75
2023/06/01 01:00:23;;;;;;;3.90;3.55;;;;;;;;;;4946456;28;20576;-75
2023/06/01 01:02:51;;;;;;;3.10;2.90;;;;;;;;;;4948152;28;20079;-75
2023/06/01 01:05:19;;;;;;;4.57;3.50;;;;;;;;;;4946385;28;20055;-74
2023/06/01 01:07:49;;;;;;;3.35;3.05;;;;;;;;;;4947657;28;20150;-75
2023/06/01 01:10:17;;;;;;;3.95;3.53;;;;;;;;;;4939298;28;20345;-74
2023/06/01 01:12:48;;;;;;;3.95;3.60;;;;;;;;;;4953882;28;20576;-74
2023/06/01 01:15:36;;;;;;;4.25;3.92;;;;;;;;;;4946690;28;20049;-74
2023/06/01 01:18:06;;;;;;;3.72;3.42;;;;;;;;;;4976874;28;20494;-74
2023/06/01 01:20:39;;;;;;;3.55;3.25;;;;;;;;;;4975931;28;20379;-74
2023/06/01 01:23:12;;;;;;;5.75;3.15;;;;;;;;;;4944458;28;20059;-74
2023/06/01 01:25:45;;;;;;;3.92;3.20;;;;;;;;;;4986337;28;20057;-74
2023/06/01 01:28:22;;;;;;;3.55;3.25;;;;;;;;;;4946263;28;20054;-74
2023/06/01 01:30:51;;;;;;;3.90;3.60;;;;;;;;;;4975883;28;20051;-74
2023/06/01 01:33:18;;;;;;;3.78;3.47;;;;;;;;;;4947822;28;20040;-74
2023/06/01 01:35:46;;;;;;;3.83;3.42;;;;;;;;;;4943465;28;20114;-74
2023/06/01 01:38:13;;;;;;;3.75;3.45;;;;;;;;;;4975695;28;20051;-74
2023/06/01 01:40:41;;;;;;;4.20;3.70;;;;;;;;;;4945593;28;20055;-74
2023/06/01 01:43:09;;;;;;;3.60;3.30;;;;;;;;;;4946871;28;20039;-74
2023/06/01 01:45:37;;;;;;;4.32;3.80;;;;;;;;;;4947821;28;20109;-75
2023/06/01 01:48:14;;;;;;;3.95;3.55;;;;;;;;;;4946975;28;20051;-75
2023/06/01 01:50:50;;;;;;;4.35;3.67;;;;;;;;;;4945629;28;20076;-75
2023/06/01 01:53:18;;;;;;;4.25;3.90;;;;;;;;;;4945803;28;20179;-74
2023/06/01 01:55:47;;;;;;;4.03;3.63;;;;;;;;;;4946388;28;20489;-75
2023/06/01 01:58:14;;;;;;;3.80;3.40;;;;;;;;;;4946802;28;20051;-75
2023/06/01 02:00:43;;;;;;;3.25;2.97;;;;;;;;;;4944953;28;20568;-75
2023/06/01 02:03:18;;;;;;;3.20;2.90;;;;;;;;;;4945317;28;20055;-75
2023/06/01 02:05:45;;;;;;;4.95;3.63;;;;;;;;;;4940594;28;20051;-74
2023/06/01 02:08:13;;;;;;;4.22;3.83;;;;;;;;;;4962023;28;20035;-75
2023/06/01 02:10:43;;;;;;;4.22;3.88;;;;;;;;;;4962567;28;20110;-74
2023/06/01 02:13:12;;;;;;;3.78;3.42;;;;;;;;;;4965239;23;20078;-75
2023/06/01 02:15:40;;;;;;;3.25;3.05;;;;;;;;;;4936322;29;20058;-75
2023/06/01 02:18:07;;;;;;;3.30;3.10;;;;;;;;;;4928154;29;20410;-75
2023/06/01 02:20:35;;;;;;;3.40;3.15;;;;;;;;;;4921745;29;20450;-75
2023/06/01 02:23:02;;;;;;;3.92;3.55;;;;;;;;;;4936878;28;20055;-75
2023/06/01 02:25:29;;;;;;;5.25;3.78;;;;;;;;;;4921159;29;20569;-75
2023/06/01 02:27:57;;;;;;;4.75;3.40;;;;;;;;;;4926599;29;20085;-75
2023/06/01 02:30:25;;;;;;;3.63;3.35;;;;;;;;;;4925372;29;20119;-76
2023/06/01 02:32:52;;;;;;;3.30;3.00;;;;;;;;;;4926344;29;20055;-75
2023/06/01 02:35:20;;;;;;;3.67;3.38;;;;;;;;;;4921295;29;20459;-75
2023/06/01 02:37:49;;;;;;;3.90;3.53;;;;;;;;;;4921733;29;20525;-75
2023/06/01 02:40:17;;;;;;;6.65;4.00;;;;;;;;;;4923056;29;20399;-75
2023/06/01 02:42:44;;;;;;;3.80;3.40;;;;;;;;;;4926362;29;20094;-75
2023/06/01 02:45:12;;;;;;;4.10;3.70;;;;;;;;;;4922712;29;20466;-75
2023/06/01 02:47:39;;;;;;;4.05;3.60;;;;;;;;;;4929350;29;20438;-75
2023/06/01 02:50:07;;;;;;;4.20;3.80;;;;;;;;;;4927053;29;20557;-75
2023/06/01 02:52:39;;;;;;;4.47;3.90;;;;;;;;;;4926593;29;20090;-75
2023/06/01 02:55:07;;;;;;;5.00;4.22;;;;;;;;;;4928529;29;20040;-75
2023/06/01 02:57:57;;;;;;;6.43;4.80;;;;;;;;;;4930680;29;20056;-76
2023/06/01 03:00:27;;;;;;;5.28;4.35;;;;;;;;;;4925960;29;20130;-75
2023/06/01 03:02:54;;;;;;;5.15;4.65;;;;;;;;;;4930836;29;20051;-75
2023/06/01 03:05:22;;;;;;;5.40;4.85;;;;;;;;;;4929020;29;20491;-75
2023/06/01 03:08:10;;;;;;;7.43;5.53;;;;;;;;;;4929834;29;20095;-75
2023/06/01 03:10:37;;;;;;;6.28;5.28;;;;;;;;;;4928579;29;20122;-75
2023/06/01 03:13:11;;;;;;;7.63;5.70;;;;;;;;;;4929429;29;20056;-75
2023/06/01 03:15:39;;;;;;;7.93;5.70;;;;;;;;;;4929441;29;20047;-76
2023/06/01 03:18:08;;;;;;;7.20;5.53;;;;;;;;;;4937746;28;20040;-76
2023/06/01 03:20:36;;;;;;;7.63;5.50;;;;;;;;;;4926941;29;20055;-76
2023/06/01 03:23:04;;;;;;;7.57;5.57;;;;;;;;;;4928771;29;20092;-76
2023/06/01 03:25:33;;;;;;;7.63;5.25;;;;;;;;;;4928989;29;20075;-75
2023/06/01 03:28:00;;;;;;;8.43;6.10;;;;;;;;;;4929041;29;20048;-75
2023/06/01 03:30:28;;;;;;;7.95;5.97;;;;;;;;;;4926754;29;20051;-75
2023/06/01 03:32:56;;;;;;;7.22;5.60;;;;;;;;;;4927301;29;20432;-75
2023/06/01 03:35:23;;;;;;;6.35;5.50;;;;;;;;;;4927438;29;20556;-76
2023/06/01 03:37:51;;;;;;;6.15;5.20;;;;;;;;;;4928620;29;20130;-76
2023/06/01 03:40:20;;;;;;;5.88;5.00;;;;;;;;;;4933412;29;20048;-76
2023/06/01 03:42:48;;;;;;;6.57;4.85;;;;;;;;;;4942791;29;20160;-75
2023/06/01 03:45:16;;;;;;;7.05;4.95;;;;;;;;;;4927920;29;20047;-76
2023/06/01 03:47:44;;;;;;;6.22;4.65;;;;;;;;;;4929091;29;20044;-76
2023/06/01 03:50:12;;;;;;;6.18;4.85;;;;;;;;;;4929291;29;20379;-76
2023/06/01 03:52:40;;;;;;;5.25;4.45;;;;;;;;;;4927825;29;20047;-76
2023/06/01 03:55:10;;;;;;;5.13;4.57;;;;;;;;;;4927006;29;20048;-76
2023/06/01 03:58:02;;;;;;;5.05;4.22;;;;;;;;;;4926972;29;20055;-76
2023/06/01 04:00:30;;;;;;;6.25;4.65;;;;;;;;;;4928415;29;20130;-75
2023/06/01 04:03:01;;;;;;;4.90;4.10;;;;;;;;;;4926551;29;20048;-76
2023/06/01 04:05:29;;;;;;;5.72;4.53;;;;;;;;;;4928813;29;20044;-76
2023/06/01 04:07:56;;;;;;;6.53;4.70;;;;;;;;;;4926722;29;20039;-76
2023/06/01 04:10:24;;;;;;;5.40;4.38;;;;;;;;;;4923583;29;20051;-76
2023/06/01 04:12:52;;;;;;;7.75;4.40;;;;;;;;;;4925331;29;20054;-76
2023/06/01 04:15:24;;;;;;;3.97;3.60;;;;;;;;;;4931534;29;20102;-75
2023/06/01 04:17:52;;;;;;;4.80;4.05;;;;;;;;;;4927271;29;20521;-75
2023/06/01 04:20:20;;;;;;;4.97;4.28;;;;;;;;;;4927079;29;20055;-76
2023/06/01 04:22:47;;;;;;;4.90;4.50;;;;;;;;;;4928415;29;20066;-75
2023/06/01 04:25:17;;;;;;;4.07;3.78;;;;;;;;;;4924611;29;20391;-76
2023/06/01 04:27:48;;;;;;;4.85;4.45;;;;;;;;;;4925675;29;20437;-76
2023/06/01 04:30:16;;;;;;;4.88;4.45;;;;;;;;;;4921037;29;20172;-75
2023/06/01 04:32:45;;;;;;;6.18;4.10;;;;;;;;;;4927196;29;20078;-75
2023/06/01 04:35:14;;;;;;;5.00;4.05;;;;;;;;;;4924160;29;20067;-75
2023/06/01 04:37:42;;;;;;;4.53;4.13;;;;;;;;;;4937813;28;20071;-75
2023/06/01 04:40:13;;;;;;;4.47;4.07;;;;;;;;;;4934361;28;20449;-75
2023/06/01 04:42:42;;;;;;;3.80;3.50;;;;;;;;;;4919230;29;20638;-75
2023/06/01 04:45:10;;;;;;;3.13;2.92;;;;;;;;;;4917044;29;20048;-75
2023/06/01 04:47:39;;;;;;;2.95;2.75;;;;;;;;;;4919444;29;21588;-75
2023/06/01 04:50:15;;;;;;;3.55;3.25;;;;;;;;;;4918947;29;20059;-77
2023/06/01 04:52:44;;;;;;;3.47;3.17;;;;;;;;;;4922074;29;20040;-76
2023/06/01 04:55:15;;;;;;;3.85;3.55;;;;;;;;;;4922036;29;20052;-77
2023/06/01 04:57:43;;;;;;;3.63;3.42;;;;;;;;;;4921677;29;20071;-77
2023/06/01 05:00:12;;;;;;;3.72;3.42;;;;;;;;;;4921330;29;20107;-77
2023/06/01 05:02:42;;;;;;;4.95;3.45;;;;;;;;;;4925130;29;20055;-78
2023/06/01 05:05:12;;;;;;;3.95;3.53;;;;;;;;;;4926434;29;20078;-77
2023/06/01 05:07:41;;;;;;;4.28;3.88;;;;;;;;;;4916910;29;20048;-76
2023/06/01 05:10:10;;;;;;;3.80;3.50;;;;;;;;;;4925002;29;20052;-76
2023/06/01 05:12:45;;;;;;;4.20;3.47;;;;;;;;;;4927712;29;20123;-76
2023/06/01 05:15:16;;;;;;;3.00;2.80;;;;;;;;;;4926569;29;20106;-76
2023/06/01 05:17:44;;;;;;;3.10;2.90;;;;;;;;;;4921604;29;20163;-76
2023/06/01 05:20:16;;;;;;;3.28;3.08;;;;;;;;;;4923413;29;20052;-76
2023/06/01 05:22:49;;;;;;;3.47;3.17;;;;;;;;;;4929274;29;20522;-76
2023/06/01 05:25:17;;;;;;;3.40;3.10;;;;;;;;;;4917673;29;20050;-76
2023/06/01 05:27:44;;;;;;;5.28;3.45;;;;;;;;;;4913111;29;20142;-76
2023/06/01 05:30:12;;;;;;;3.42;3.22;;;;;;;;;;4917207;29;20510;-76
2023/06/01 05:32:40;;;;;;;3.72;2.92;;;;;;;;;;4916822;29;20127;-77
2023/06/01 05:35:15;;;;;;;3.30;3.08;;;;;;;;;;4910842;29;20039;-77
2023/06/01 05:37:43;;;;;;;3.28;3.08;;;;;;;;;;4933041;28;20055;-76
2023/06/01 05:40:13;;;;;;;3.33;3.13;;;;;;;;;;4919444;29;20050;-77
2023/06/01 05:42:41;;;;;;;2.53;2.38;;;;;;;;;;4918884;29;20048;-77
2023/06/01 05:45:09;;;;;;;2.70;2.60;;;;;;;;;;4924257;29;20122;-77
2023/06/01 05:47:38;;;;;;;3.58;3.08;;;;;;;;;;4917175;29;20056;-77
2023/06/01 05:50:06;;;;;;;3.13;2.92;;;;;;;;;;4918736;29;20051;-76
2023/06/01 05:52:33;;;;;;;3.58;3.28;;;;;;;;;;4915884;29;20052;-77
2023/06/01 05:55:03;;;;;;;3.20;3.00;;;;;;;;;;4907022;29;20581;-77
2023/06/01 05:57:30;;;;;;;3.25;2.97;;;;;;;;;;4924260;29;20054;-77
2023/06/01 05:59:58;;;;;;;3.38;3.08;;;;;;;;;;4925644;29;20075;-77
2023/06/01 06:02:25;;;;;;;2.67;2.58;;;;;;;;;;4924176;29;20047;-76
2023/06/01 06:04:53;;;;;;;3.35;3.10;;;;;;;;;;4923641;29;20754;-77
2023/06/01 06:07:21;;;;;;;3.25;3.05;;;;;;;;;;4932373;29;20063;-76
2023/06/01 06:09:48;;;;;;;3.53;3.22;;;;;;;;;;4929317;29;20055;-76
2023/06/01 06:12:16;;;;;;;3.47;3.28;;;;;;;;;;4933094;28;20065;-77
2023/06/01 06:14:43;;;;;;;3.60;3.30;;;;;;;;;;4931420;29;20074;-77
2023/06/01 06:17:11;;;;;;;3.55;3.25;;;;;;;;;;4937384;29;20043;-77
2023/06/01 06:19:38;;;;;;;3.60;3.30;;;;;;;;;;4924378;29;20509;-76
2023/06/01 06:22:06;;;;;;;3.05;2.85;;;;;;;;;;4926592;29;20056;-77
2023/06/01 06:24:33;;;;;;;4.00;3.70;;;;;;;;;;4926327;29;20051;-77
2023/06/01 06:27:01;;;;;;;4.10;3.70;;;;;;;;;;4936785;28;20048;-77
2023/06/01 06:29:29;;;;;;;3.33;3.10;;;;;;;;;;4927222;29;20058;-76
2023/06/01 06:31:57;;;;;;;3.70;3.40;;;;;;;;;;4929131;29;20077;-76
2023/06/01 06:34:24;;;;;;;3.50;3.20;;;;;;;;;;4929324;29;20048;-76
2023/06/01 06:36:52;;;;;;;3.10;2.88;;;;;;;;;;4936779;29;20064;-76
2023/06/01 06:39:21;;;;;;;3.15;2.88;;;;;;;;;;4938821;29;20075;-76
2023/06/01 06:41:48;;;;;;;2.83;2.63;;;;;;;;;;4927038;28;20107;-76
2023/06/01 06:44:15;;;;;;;3.00;2.70;;;;;;;;;;4924253;29;20130;-76
2023/06/01 06:46:43;;;;;;;2.60;2.40;;;;;;;;;;4936501;29;20059;-76
2023/06/01 06:49:10;;;;;;;2.45;2.33;;;;;;;;;;4930861;29;20060;-76
2023/06/01 06:51:38;;;;;;;2.88;2.67;;;;;;;;;;4932318;28;20071;-76
2023/06/01 06:54:06;;;;;;;2.90;2.70;;;;;;;;;;4931620;29;20099;-77
2023/06/01 06:56:33;;;;;;;2.45;2.30;;;;;;;;;;4933678;29;20115;-76
2023/06/01 06:59:01;;;;;;;2.33;2.22;;;;;;;;;;4925918;29;20047;-76
2023/06/01 07:01:37;;;;;;;2.60;2.40;;;;;;;;;;4923556;29;20395;-76
2023/06/01 07:04:08;;;;;;;2.67;2.47;;;;;;;;;;4927031;29;20132;-75
2023/06/01 07:06:37;;;;;;;2.80;2.60;;;;;;;;;;4927285;29;20469;-76
2023/06/01 07:09:09;;;;;;;2.22;2.10;;;;;;;;;;4919767;29;20054;-76
2023/06/01 07:11:36;;;;;;;;;;;;;;;;;;4925251;29;20051;-76
2023/06/01 07:14:04;;;;;;;2.38;2.17;;;;;;;;;;4923908;29;19966;-76
2023/06/01 07:16:31;;;;;;;2.25;2.15;;;;;;;;;;4920232;29;20111;-76
2023/06/01 07:18:59;;;;;;;2.28;2.08;;;;;;;;;;4925840;29;20044;-76
2023/06/01 07:21:26;;;;;;;3.85;2.10;;;;;;;;;;4922304;29;20056;-76
2023/06/01 07:23:54;;;;;;;2.40;2.20;;;;;;;;;;4926821;29;20052;-76
2023/06/01 07:26:26;;;;;;;2.80;2.60;;;;;;;;;;4919036;29;20055;-76
2023/06/01 07:28:54;;;;;;;2.10;2.00;;;;;;;;;;4919806;29;20107;-76
2023/06/01 07:31:22;;;;;;;1.98;1.88;;;;;;;;;;4922296;29;20517;-76
2023/06/01 07:33:51;;;;;;;2.20;2.10;;;;;;;;;;4919613;29;20073;-76
2023/06/01 07:36:23;;;;;;;2.13;1.98;;;;;;;;;;4924979;29;20525;-76
2023/06/01 07:38:51;;;;;;;2.22;2.03;;;;;;;;;;4924369;29;20470;-76
2023/06/01 07:41:18;;;;;;;2.10;1.90;;;;;;;;;;4927923;29;20047;-76
2023/06/01 07:43:46;;;;;;;2.53;2.00;;;;;;;;;;4925660;29;20064;-76
2023/06/01 07:46:13;;;;;;;2.35;2.00;;;;;;;;;;4929890;29;20044;-76
2023/06/01 07:48:41;;;;;;;1.80;1.70;;;;;;;;;;4925356;29;20102;-76
2023/06/01 07:51:08;;;;;;;2.22;2.03;;;;;;;;;;4924653;29;20086;-76
2023/06/01 07:53:36;;;;;;;1.60;1.50;;;;;;;;;;4930810;29;20541;-76
2023/06/01 07:56:03;;;;;;;1.88;1.77;;;;;;;;;;4931676;29;20074;-76
2023/06/01 07:58:31;;;;;;;1.95;1.85;;;;;;;;;;4931056;29;20059;-76
2023/06/01 08:00:58;;;;;;;1.75;1.65;;;;;;;;;;4928580;29;20154;-76
2023/06/01 08:03:26;;;;;;;1.80;1.70;;;;;;;;;;4931115;29;20048;-76
2023/06/01 08:05:59;;;;;;;1.88;1.77;;;;;;;;;;4926359;29;20120;-76
2023/06/01 08:08:28;;;;;;;2.20;2.00;;;;;;;;;;4930726;29;20134;-76
2023/06/01 08:10:55;;;;;;;1.60;1.50;;;;;;;;;;4932121;29;20134;-76
2023/06/01 08:13:25;;;;;;;1.58;1.50;;;;;;;;;;4971720;23;20132;-77
2023/06/01 08:15:53;;;;;;;3.10;1.67;;;;;;;;;;4945011;28;20435;-77
2023/06/01 08:18:21;;;;;;;2.08;1.60;;;;;;;;;;4949958;28;20035;-75
2023/06/01 08:20:49;;;;;;;1.70;1.60;;;;;;;;;;4950381;28;20100;-75
2023/06/01 08:23:17;;;;;;;1.67;1.58;;;;;;;;;;4950636;28;20047;-75
2023/06/01 08:25:45;;;;;;;1.90;1.70;;;;;;;;;;4949448;28;20058;-75
2023/06/01 08:28:13;;;;;;;1.38;1.30;;;;;;;;;;4948213;28;20047;-76
2023/06/01 08:30:41;;;;;;;1.65;1.50;;;;;;;;;;4949176;28;20398;-76
2023/06/01 08:33:08;;;;;;;1.50;1.40;;;;;;;;;;4949640;28;20074;-77
2023/06/01 08:35:36;;;;;;;2.33;1.90;;;;;;;;;;4954119;28;20568;-76
2023/06/01 08:38:08;;;;;;;1.67;1.48;;;;;;;;;;4952474;28;20053;-76
2023/06/01 08:40:36;;;;;;;2.85;1.90;;;;;;;;;;4948197;28;20109;-76
2023/06/01 08:43:14;;;;;;;1.70;1.60;;;;;;;;;;4953075;28;20522;-76
2023/06/01 08:45:41;;;;;;;1.45;1.35;;;;;;;;;;4947835;28;20051;-76
2023/06/01 08:48:09;;;;;;;1.80;1.70;;;;;;;;;;4949111;28;20074;-76
2023/06/01 08:50:37;;;;;;;1.80;1.70;;;;;;;;;;4950154;28;20054;-76
2023/06/01 08:53:06;;;;;;;1.52;1.42;;;;;;;;;;4948721;28;20075;-76
2023/06/01 08:55:34;;;;;;;1.52;1.40;;;;;;;;;;4949151;28;20081;-76
2023/06/01 08:58:01;;;;;;;1.50;1.40;;;;;;;;;;4949404;28;20630;-77
2023/06/01 09:00:30;;;;;;;1.60;1.50;;;;;;;;;;4946725;28;20051;-76
2023/06/01 09:02:57;;;;;;;2.15;1.60;;;;;;;;;;4947270;28;20494;-76
2023/06/01 09:05:26;;;;;;;1.33;1.33;;;;;;;;;;4949174;28;20063;-76
2023/06/01 09:07:54;;;;;;;1.33;1.33;;;;;;;;;;4948248;28;20043;-77
2023/06/01 09:10:27;;;;;;;1.50;1.40;;;;;;;;;;4948109;28;20050;-76
2023/06/01 09:12:55;;;;;;;1.38;1.38;;;;;;;;;;4949128;28;20050;-76
2023/06/01 09:15:25;;;;;;;1.20;1.20;;;;;;;;;;4942717;28;20134;-76
2023/06/01 09:18:05;;;;;;;1.50;1.40;;;;;;;;;;4948543;28;20058;-77
2023/06/01 09:20:32;;;;;;;1.63;1.52;;;;;;;;;;4948204;28;20055;-76
2023/06/01 09:23:00;;;;;;;1.33;1.30;;;;;;;;;;4951382;28;20406;-76
2023/06/01 09:25:28;;;;;;;1.65;1.55;;;;;;;;;;4948787;28;20051;-76
2023/06/01 09:27:57;;;;;;;1.33;1.23;;;;;;;;;;4948927;28;20047;-77
2023/06/01 09:30:25;;;;;;;1.40;1.30;;;;;;;;;;4950087;28;20052;-76
2023/06/01 09:33:15;;;;;;;2.53;1.70;;;;;;;;;;4945418;28;20114;-76
2023/06/01 09:35:42;;;;;;;1.35;1.35;;;;;;;;;;4944308;28;20048;-76
2023/06/01 09:38:10;;;;;;;1.52;1.42;;;;;;;;;;4947440;28;20039;-76
2023/06/01 09:40:38;;;;;;;2.47;1.75;;;;;;;;;;4943893;28;20078;-76
2023/06/01 09:43:21;;;;;;;1.50;1.40;;;;;;;;;;4943941;28;20050;-77
2023/06/01 09:46:06;;;;;;;1.30;1.30;;;;;;;;;;4946315;28;20063;-77
2023/06/01 09:48:33;;;;;;;1.60;1.50;;;;;;;;;;4939988;28;20054;-76
2023/06/01 09:51:01;;;;;;;1.40;1.40;;;;;;;;;;4945301;28;20114;-76
2023/06/01 09:53:40;;;;;;;1.60;1.50;;;;;;;;;;4945589;28;20454;-76
2023/06/01 09:56:07;;;;;;;1.60;1.50;;;;;;;;;;4945478;28;20058;-77
2023/06/01 09:58:39;;;;;;;1.20;1.20;;;;;;;;;;4948165;28;20078;-76
2023/06/01 10:01:08;;;;;;;1.60;1.50;;;;;;;;;;4953417;28;20054;-77
2023/06/01 10:03:43;;;;;;;1.95;1.65;;;;;;;;;;4948411;28;20043;-77
2023/06/01 10:06:12;;;;;;;2.03;1.80;;;;;;;;;;4948812;28;20086;-77
2023/06/01 10:08:39;;;;;;;1.42;1.20;;;;;;;;;;4945961;28;20448;-77
2023/06/01 10:11:07;;;;;;;1.30;1.20;;;;;;;;;;4946386;28;20050;-76
2023/06/01 10:13:35;;;;;;;3.15;1.30;;;;;;;;;;4942147;28;20130;-77
2023/06/01 10:16:03;;;;;;;1.65;1.55;;;;;;;;;;4948141;28;20055;-77
2023/06/01 10:18:32;;;;;;;2.00;1.90;;;;;;;;;;4946312;28;20130;-76
2023/06/01 10:21:00;;;;;;;1.73;1.50;;;;;;;;;;4959856;28;20058;-76
2023/06/01 10:23:28;;;;;;;1.77;1.67;;;;;;;;;;4955239;28;20074;-78
2023/06/01 10:26:00;;;;;;;2.60;1.73;;;;;;;;;;4948561;28;20047;-77
2023/06/01 10:28:30;;;;;;;1.90;1.80;;;;;;;;;;4956821;28;20054;-76
2023/06/01 10:31:16;;;;;;;1.30;1.20;;;;;;;;;;4948398;28;20097;-77
2023/06/01 10:33:55;;;;;;;3.78;1.90;;;;;;;;;;4948631;28;20055;-77
2023/06/01 10:36:22;;;;;;;2.30;2.10;;;;;;;;;;4956226;28;20139;-77
2023/06/01 10:38:50;;;;;;;1.70;1.60;;;;;;;;;;4947444;28;20106;-77
2023/06/01 10:41:28;;;;;;;1.80;1.58;;;;;;;;;;4948416;28;20146;-76
2023/06/01 10:43:55;;;;;;;1.60;1.50;;;;;;;;;;4948746;28;20058;-77
2023/06/01 10:46:36;;;;;;;1.23;1.23;;;;;;;;;;4948267;28;20050;-77
2023/06/01 10:49:04;;;;;;;1.30;1.30;;;;;;;;;;4954412;28;20048;-77
2023/06/01 10:51:32;;;;;;;1.40;1.30;;;;;;;;;;4947832;28;20052;-77
2023/06/01 10:54:18;;;;;;;1.80;1.70;;;;;;;;;;4947828;28;20341;-76
2023/06/01 10:56:45;;;;;;;1.65;1.52;;;;;;;;;;4941267;28;20058;-77
2023/06/01 10:59:13;;;;;;;1.90;1.80;;;;;;;;;;4955593;28;20051;-76
2023/06/01 11:01:46;;;;;;;1.98;1.73;;;;;;;;;;4941252;28;20138;-77
2023/06/01 11:04:14;;;;;;;1.80;1.70;;;;;;;;;;4947979;28;20047;-77
2023/06/01 11:06:43;;;;;;;1.88;1.77;;;;;;;;;;4940460;28;20102;-77
2023/06/01 11:09:12;;;;;;;1.95;1.85;;;;;;;;;;4946051;28;20047;-77
2023/06/01 11:11:52;;;;;;;2.50;2.30;;;;;;;;;;4946127;28;20516;-77
2023/06/01 11:14:22;;;;;;;3.38;2.10;;;;;;;;;;4945903;28;20066;-78
2023/06/01 11:16:53;;;;;;;1.92;1.77;;;;;;;;;;4948759;28;20110;-77
2023/06/01 11:19:24;;;;;;;1.85;1.75;;;;;;;;;;4948677;28;20043;-77
2023/06/01 11:22:02;;;;;;;1.92;1.83;;;;;;;;;;4946827;28;20051;-77
2023/06/01 11:24:34;;;;;;;1.70;1.60;;;;;;;;;;4958924;28;20074;-77
2023/06/01 11:27:06;;;;;;;1.73;1.63;;;;;;;;;;4951748;28;20062;-78
2023/06/01 11:29:34;;;;;;;1.83;1.73;;;;;;;;;;4953464;28;20441;-77
2023/06/01 11:32:03;;;;;;;3.30;1.75;;;;;;;;;;4951181;28;20530;-77
2023/06/01 11:34:33;;;;;;;2.45;1.80;;;;;;;;;;4950536;28;20047;-78
2023/06/01 11:37:01;;;;;;;2.00;1.85;;;;;;;;;;4951452;28;21307;-77
2023/06/01 11:39:29;;;;;;;1.60;1.50;;;;;;;;;;4952119;28;20062;-77
2023/06/01 11:42:07;;;;;;;1.90;1.80;;;;;;;;;;4950583;28;20654;-77
2023/06/01 11:44:35;;;;;;;1.80;1.70;;;;;;;;;;4949931;28;20043;-78
2023/06/01 11:47:05;;;;;;;1.63;1.52;;;;;;;;;;4950801;28;20509;-77
2023/06/01 11:49:51;;;;;;;1.88;1.77;;;;;;;;;;4950073;28;20050;-77
2023/06/01 11:52:19;;;;;;;1.85;1.70;;;;;;;;;;4950283;28;20071;-77
2023/06/01 11:54:48;;;;;;;1.75;1.65;;;;;;;;;;4949832;28;20047;-77
2023/06/01 11:57:16;;;;;;;1.70;1.58;;;;;;;;;;4950225;28;20043;-77
2023/06/01 11:59:45;;;;;;;1.83;1.70;;;;;;;;;;4948824;28;20055;-77
2023/06/01 12:02:20;;;;;;;1.70;1.60;;;;;;;;;;4950352;28;20488;-76
2023/06/01 12:05:10;;;;;;;2.35;2.15;;;;;;;;;;4949489;28;20058;-78
2023/06/01 12:07:45;;;;;;;2.13;1.70;;;;;;;;;;4947864;28;20560;-78
2023/06/01 12:10:16;;;;;;;1.70;1.60;;;;;;;;;;4949593;28;20054;-77
2023/06/01 12:12:44;;;;;;;2.00;1.77;;;;;;;;;;4950429;28;20047;-78
2023/06/01 12:15:14;;;;;;;1.92;1.83;;;;;;;;;;4948341;28;20063;-78
2023/06/01 12:17:50;;;;;;;1.70;1.60;;;;;;;;;;4954114;28;20055;-77
2023/06/01 12:20:41;;;;;;;1.60;1.50;;;;;;;;;;4948790;28;20117;-77
2023/06/01 12:23:19;;;;;;;1.38;1.38;;;;;;;;;;4951640;28;20051;-77
2023/06/01 12:25:51;;;;;;;1.30;1.30;;;;;;;;;;4957065;28;20055;-78
2023/06/01 12:28:19;;;;;;;1.30;1.30;;;;;;;;;;4950178;28;20086;-77
2023/06/01 12:30:47;;;;;;;1.60;1.50;;;;;;;;;;4949674;28;20102;-77
2023/06/01 12:33:34;;;;;;;1.55;1.45;;;;;;;;;;4950067;28;20638;-77
2023/06/01 12:36:03;;;;;;;1.30;1.20;;;;;;;;;;4950253;28;20058;-77
2023/06/01 12:38:38;;;;;;;1.50;1.40;;;;;;;;;;4949783;28;20501;-78
2023/06/01 12:41:10;;;;;;;1.42;1.33;;;;;;;;;;4949044;28;20047;-78
2023/06/01 12:43:38;;;;;;;1.30;1.20;;;;;;;;;;4949589;28;20133;-77
2023/06/01 12:46:06;;;;;;;1.35;1.35;;;;;;;;;;4949502;28;20469;-78
2023/06/01 12:48:36;;;;;;;1.52;1.50;;;;;;;;;;4949275;28;20055;-77
2023/06/01 12:51:05;;;;;;;1.80;1.23;;;;;;;;;;4949942;28;20316;-77
2023/06/01 12:53:33;;;;;;;1.23;1.23;;;;;;;;;;4947934;28;20047;-77
2023/06/01 12:56:00;;;;;;;1.40;1.40;;;;;;;;;;4949009;28;20051;-77
2023/06/01 12:58:28;;;;;;;1.60;1.50;;;;;;;;;;4949106;28;20051;-77
2023/06/01 13:00:55;;;;;;;1.50;1.40;;;;;;;;;;4949081;28;20081;-77
2023/06/01 13:03:43;;;;;;;1.48;1.48;;;;;;;;;;4951275;28;20048;-77
2023/06/01 13:06:10;;;;;;;1.50;1.40;;;;;;;;;;4951113;28;20486;-76
2023/06/01 13:08:38;;;;;;;1.83;1.73;;;;;;;;;;4954393;28;20055;-76
2023/06/01 13:11:06;;;;;;;1.50;1.48;;;;;;;;;;4954322;28;20134;-76
2023/06/01 13:13:34;;;;;;;1.90;1.80;;;;;;;;;;4944390;28;20047;-77
2023/06/01 13:16:02;;;;;;;1.48;1.40;;;;;;;;;;4956153;28;20047;-76
2023/06/01 13:18:30;;;;;;;1.50;1.50;;;;;;;;;;4955428;28;20082;-76
2023/06/01 13:20:57;;;;;;;1.40;1.40;;;;;;;;;;4947888;28;20250;-76
2023/06/01 13:23:25;;;;;;;1.75;1.65;;;;;;;;;;4948299;28;20058;-76
2023/06/01 13:25:53;;;;;;;1.67;1.50;;;;;;;;;;4956786;28;20059;-76
2023/06/01 13:28:21;;;;;;;1.70;1.60;;;;;;;;;;4942484;28;20146;-77
2023/06/01 13:30:49;;;;;;;1.80;1.70;;;;;;;;;;4943009;28;20054;-77
2023/06/01 13:33:17;;;;;;;1.45;1.45;;;;;;;;;;4955423;28;20043;-77
2023/06/01 13:35:44;;;;;;;2.95;1.77;;;;;;;;;;4957386;28;20101;-77
2023/06/01 13:38:12;;;;;;;1.80;1.70;;;;;;;;;;4954397;28;20051;-77
2023/06/01 13:40:39;;;;;;;2.33;1.80;;;;;;;;;;4962545;28;20050;-77
2023/06/01 13:43:07;;;;;;;2.20;2.10;;;;;;;;;;4945654;28;20074;-78
2023/06/01 13:45:34;;;;;;;2.58;1.75;;;;;;;;;;4944688;28;20130;-78
2023/06/01 13:48:02;;;;;;;1.27;1.27;;;;;;;;;;4946512;28;20074;-78
2023/06/01 13:50:30;;;;;;;1.42;1.42;;;;;;;;;;4951052;28;20043;-77
2023/06/01 13:52:58;;;;;;;2.05;1.50;;;;;;;;;;4963050;28;20058;-77
2023/06/01 13:55:27;;;;;;;1.30;1.30;;;;;;;;;;4947899;28;20047;-77
2023/06/01 13:57:55;;;;;;;1.60;1.50;;;;;;;;;;4947434;28;20191;-76
2023/06/01 14:00:22;;;;;;;1.88;1.77;;;;;;;;;;4946676;28;20106;-76
2023/06/01 14:02:50;;;;;;;1.48;1.38;;;;;;;;;;4950718;28;20074;-75
2023/06/01 14:05:18;;;;;;;1.38;1.35;;;;;;;;;;4951310;28;20664;-77
2023/06/01 14:07:54;;;;;;;1.85;1.75;;;;;;;;;;4941997;28;20106;-77
2023/06/01 14:10:22;;;;;;;1.63;1.52;;;;;;;;;;4956455;28;20074;-77
2023/06/01 14:12:49;;;;;;;1.50;1.40;;;;;;;;;;4941084;28;20051;-77
2023/06/01 14:15:17;;;;;;;1.58;1.48;;;;;;;;;;5039649;23;20716;-77
2023/06/01 14:17:45;;;;;;;1.50;1.40;;;;;;;;;;4960376;28;20101;-80
2023/06/01 14:20:12;;;;;;;1.65;1.55;;;;;;;;;;4954096;28;20086;-78
2023/06/01 14:22:40;;;;;;;1.48;1.38;;;;;;;;;;4957897;28;20047;-78
2023/06/01 14:25:07;;;;;;;1.40;1.40;;;;;;;;;;4954909;28;20042;-79
2023/06/01 14:27:38;;;;;;;1.30;1.30;;;;;;;;;;4952626;28;20055;-78
2023/06/01 14:30:05;;;;;;;;;;;;;;;;;;4962397;28;20043;-77
2023/06/01 14:32:33;;;;;;;1.27;1.20;;;;;;;;;;4957966;28;19948;-78
2023/06/01 14:35:01;;;;;;;1.20;1.20;;;;;;;;;;4967816;28;20133;-77
2023/06/01 14:37:31;;;;;;;1.73;1.60;;;;;;;;;;4957756;28;20059;-78
2023/06/01 14:40:15;;;;;;;1.85;1.23;;;;;;;;;;4938837;28;20043;-80
2023/06/01 14:42:42;;;;;;;2.20;1.23;;;;;;;;;;4958940;28;20441;-77
2023/06/01 14:45:11;;;;;;;1.30;1.20;;;;;;;;;;4949290;28;20507;-77
2023/06/01 14:47:41;;;;;;;1.63;1.52;;;;;;;;;;4965114;28;20508;-80
2023/06/01 14:50:09;;;;;;;1.30;1.30;;;;;;;;;;4961040;28;20334;-78
2023/06/01 14:52:37;;;;;;;1.67;1.58;;;;;;;;;;4955502;28;20058;-77
2023/06/01 14:55:04;;;;;;;1.70;1.60;;;;;;;;;;4947748;28;20139;-77
2023/06/01 14:57:32;;;;;;;1.50;1.50;;;;;;;;;;4956711;28;20066;-78